sensor_id;sensor_type;location;lat;lon;timestamp;pressure;altitude;pressure_sealevel;temperature;humidity
41234;BME280;26968;42.686;23.352;2023-05-12T00:00:51;95498.13;;;11.87;56.86
41234;BME280;26968;42.686;23.352;2023-05-12T00:03:16;95482.72;;;11.84;56.94
41234;BME280;26968;42.686;23.352;2023-05-12T00:05:42;95474.78;;;11.79;56.75
41234;BME280;26968;42.686;23.352;2023-05-12T00:08:08;95477.41;;;11.84;56.30
41234;BME280;26968;42.686;23.352;2023-05-12T00:10:33;95491.19;;;11.91;56.33
41234;BME280;26968;42.686;23.352;2023-05-12T00:12:59;95462.56;;;11.73;56.21
41234;BME280;26968;42.686;23.352;2023-05-12T00:15:25;95473.47;;;11.66;56.61
41234;BME280;26968;42.686;23.352;2023-05-12T00:17:50;95469.72;;;11.72;56.14
41234;BME280;26968;42.686;23.352;2023-05-12T00:20:16;95376.81;;;11.03;56.29
41234;BME280;26968;42.686;23.352;2023-05-12T00:22:41;95494.69;;;11.76;56.37
41234;BME280;26968;42.686;23.352;2023-05-12T00:25:07;95479.09;;;11.54;56.67
41234;BME280;26968;42.686;23.352;2023-05-12T00:27:33;95460.28;;;11.51;56.35
41234;BME280;26968;42.686;23.352;2023-05-12T00:29:58;95484.16;;;11.56;57.17
41234;BME280;26968;42.686;23.352;2023-05-12T00:32:26;95492.84;;;11.72;56.56
41234;BME280;26968;42.686;23.352;2023-05-12T00:34:51;95491.03;;;11.67;56.77
41234;BME280;26968;42.686;23.352;2023-05-12T00:37:19;95485.75;;;11.57;57.28
41234;BME280;26968;42.686;23.352;2023-05-12T00:39:44;95457.13;;;11.44;57.68
41234;BME280;26968;42.686;23.352;2023-05-12T00:42:10;95496.09;;;11.53;58.67
41234;BME280;26968;42.686;23.352;2023-05-12T00:44:36;95467.50;;;11.25;59.27
41234;BME280;26968;42.686;23.352;2023-05-12T00:47:03;95482.56;;;11.45;59.44
41234;BME280;26968;42.686;23.352;2023-05-12T00:49:28;95483.72;;;11.29;60.58
41234;BME280;26968;42.686;23.352;2023-05-12T00:51:57;95498.50;;;11.45;60.68
41234;BME280;26968;42.686;23.352;2023-05-12T00:54:24;95500.41;;;11.39;61.59
41234;BME280;26968;42.686;23.352;2023-05-12T00:56:50;95451.91;;;11.13;62.13
41234;BME280;26968;42.686;23.352;2023-05-12T00:59:16;95475.81;;;10.98;63.35
41234;BME280;26968;42.686;23.352;2023-05-12T01:01:41;95484.84;;;10.97;64.13
41234;BME280;26968;42.686;23.352;2023-05-12T01:04:07;95494.13;;;10.84;65.17
41234;BME280;26968;42.686;23.352;2023-05-12T01:06:53;95503.69;;;10.91;65.21
41234;BME280;26968;42.686;23.352;2023-05-12T01:09:19;95449.84;;;10.55;65.09
41234;BME280;26968;42.686;23.352;2023-05-12T01:11:45;95486.47;;;10.83;65.43
41234;BME280;26968;42.686;23.352;2023-05-12T01:14:10;95484.84;;;10.77;66.00
41234;BME280;26968;42.686;23.352;2023-05-12T01:16:43;95512.69;;;10.95;67.56
41234;BME280;26968;42.686;23.352;2023-05-12T01:19:29;95496.25;;;10.77;67.47
41234;BME280;26968;42.686;23.352;2023-05-12T01:21:57;95470.81;;;10.56;67.76
41234;BME280;26968;42.686;23.352;2023-05-12T01:24:26;95475.84;;;10.48;67.87
41234;BME280;26968;42.686;23.352;2023-05-12T01:26:53;95511.66;;;10.80;69.14
41234;BME280;26968;42.686;23.352;2023-05-12T01:29:20;95472.41;;;10.47;69.30
41234;BME280;26968;42.686;23.352;2023-05-12T01:31:47;95486.19;;;10.54;69.59
41234;BME280;26968;42.686;23.352;2023-05-12T01:34:15;95501.03;;;10.65;69.97
41234;BME280;26968;42.686;23.352;2023-05-12T01:36:42;95503.16;;;10.68;69.99
41234;BME280;26968;42.686;23.352;2023-05-12T01:39:08;95509.00;;;10.65;71.03
41234;BME280;26968;42.686;23.352;2023-05-12T01:41:33;95465.75;;;10.39;71.04
41234;BME280;26968;42.686;23.352;2023-05-12T01:43:58;95496.00;;;10.59;71.14
41234;BME280;26968;42.686;23.352;2023-05-12T01:46:24;95493.34;;;10.54;70.71
41234;BME280;26968;42.686;23.352;2023-05-12T01:48:49;95499.44;;;10.39;71.37
41234;BME280;26968;42.686;23.352;2023-05-12T01:51:15;95505.53;;;10.39;72.11
41234;BME280;26968;42.686;23.352;2023-05-12T01:53:41;95484.59;;;10.28;72.01
41234;BME280;26968;42.686;23.352;2023-05-12T01:56:06;95488.03;;;10.38;72.37
41234;BME280;26968;42.686;23.352;2023-05-12T01:58:32;95520.66;;;10.54;72.37
41234;BME280;26968;42.686;23.352;2023-05-12T02:00:57;95433.63;;;9.95;72.67
41234;BME280;26968;42.686;23.352;2023-05-12T02:03:23;95454.84;;;10.11;73.40
41234;BME280;26968;42.686;23.352;2023-05-12T02:05:48;95490.69;;;10.33;72.98
41234;BME280;26968;42.686;23.352;2023-05-12T02:08:13;95482.19;;;10.21;72.83
41234;BME280;26968;42.686;23.352;2023-05-12T02:10:39;95488.56;;;10.30;73.70
41234;BME280;26968;42.686;23.352;2023-05-12T02:13:04;95483.00;;;10.22;73.63
41234;BME280;26968;42.686;23.352;2023-05-12T02:15:30;95490.16;;;10.31;73.94
41234;BME280;26968;42.686;23.352;2023-05-12T02:17:55;95495.72;;;10.20;73.60
41234;BME280;26968;42.686;23.352;2023-05-12T02:20:22;95437.31;;;9.79;73.39
41234;BME280;26968;42.686;23.352;2023-05-12T02:22:48;95514.56;;;10.28;73.43
41234;BME280;26968;42.686;23.352;2023-05-12T02:25:13;95527.44;;;10.10;72.70
41234;BME280;26968;42.686;23.352;2023-05-12T02:27:38;95483.41;;;9.88;73.48
41234;BME280;26968;42.686;23.352;2023-05-12T02:30:05;95503.56;;;9.89;74.02
41234;BME280;26968;42.686;23.352;2023-05-12T02:32:30;95520.31;;;10.10;74.10
41234;BME280;26968;42.686;23.352;2023-05-12T02:34:56;95513.16;;;10.11;73.69
41234;BME280;26968;42.686;23.352;2023-05-12T02:37:22;95470.38;;;9.66;73.37
41234;BME280;26968;42.686;23.352;2023-05-12T02:39:47;95457.34;;;9.55;73.23
41234;BME280;26968;42.686;23.352;2023-05-12T02:42:13;95497.47;;;9.84;73.04
41234;BME280;26968;42.686;23.352;2023-05-12T02:44:38;95515.75;;;9.95;73.49
41234;BME280;26968;42.686;23.352;2023-05-12T02:47:04;95495.03;;;9.72;73.60
41234;BME280;26968;42.686;23.352;2023-05-12T02:49:29;95424.16;;;9.22;74.05
41234;BME280;26968;42.686;23.352;2023-05-12T02:51:56;95484.94;;;9.64;74.42
41234;BME280;26968;42.686;23.352;2023-05-12T02:54:21;95499.81;;;9.80;74.48
41234;BME280;26968;42.686;23.352;2023-05-12T02:56:47;95503.50;;;9.74;73.95
41234;BME280;26968;42.686;23.352;2023-05-12T02:59:12;95467.94;;;9.50;74.64
41234;BME280;26968;42.686;23.352;2023-05-12T03:01:38;95468.94;;;9.39;74.60
41234;BME280;26968;42.686;23.352;2023-05-12T03:04:03;95485.97;;;9.53;74.32
41234;BME280;26968;42.686;23.352;2023-05-12T03:06:29;95481.59;;;9.21;75.61
41234;BME280;26968;42.686;23.352;2023-05-12T03:08:54;95495.69;;;9.42;75.17
41234;BME280;26968;42.686;23.352;2023-05-12T03:11:21;95481.16;;;9.45;75.60
41234;BME280;26968;42.686;23.352;2023-05-12T03:13:46;95464.69;;;9.33;75.14
41234;BME280;26968;42.686;23.352;2023-05-12T03:16:12;95499.69;;;9.45;75.15
41234;BME280;26968;42.686;23.352;2023-05-12T03:18:37;95415.84;;;8.98;75.95
41234;BME280;26968;42.686;23.352;2023-05-12T03:21:03;95435.41;;;8.92;75.95
41234;BME280;26968;42.686;23.352;2023-05-12T03:23:29;95475.56;;;9.41;76.16
41234;BME280;26968;42.686;23.352;2023-05-12T03:25:54;95515.38;;;9.61;75.92
41234;BME280;26968;42.686;23.352;2023-05-12T03:28:20;95458.00;;;9.15;76.02
41234;BME280;26968;42.686;23.352;2023-05-12T03:30:47;95512.97;;;9.55;75.79
41234;BME280;26968;42.686;23.352;2023-05-12T03:33:12;95470.47;;;9.24;75.98
41234;BME280;26968;42.686;23.352;2023-05-12T03:35:38;95528.13;;;9.69;76.32
41234;BME280;26968;42.686;23.352;2023-05-12T03:38:03;95472.88;;;9.26;75.91
41234;BME280;26968;42.686;23.352;2023-05-12T03:40:29;95497.31;;;9.43;76.21
41234;BME280;26968;42.686;23.352;2023-05-12T03:42:54;95493.06;;;9.42;75.50
41234;BME280;26968;42.686;23.352;2023-05-12T03:45:20;95519.53;;;9.42;75.52
41234;BME280;26968;42.686;23.352;2023-05-12T03:47:46;95515.88;;;9.53;76.08
41234;BME280;26968;42.686;23.352;2023-05-12T03:50:11;95484.53;;;9.30;75.63
41234;BME280;26968;42.686;23.352;2023-05-12T03:52:37;95519.28;;;9.49;75.69
41234;BME280;26968;42.686;23.352;2023-05-12T03:55:05;95526.75;;;9.62;76.56
41234;BME280;26968;42.686;23.352;2023-05-12T03:57:31;95495.94;;;9.31;75.93
41234;BME280;26968;42.686;23.352;2023-05-12T03:59:58;95520.03;;;9.39;76.00
41234;BME280;26968;42.686;23.352;2023-05-12T04:02:24;95488.41;;;9.12;76.98
41234;BME280;26968;42.686;23.352;2023-05-12T04:04:49;95530.97;;;9.53;76.23
41234;BME280;26968;42.686;23.352;2023-05-12T04:07:15;95491.16;;;9.33;75.99
41234;BME280;26968;42.686;23.352;2023-05-12T04:09:40;95528.59;;;9.51;75.73
41234;BME280;26968;42.686;23.352;2023-05-12T04:12:06;95508.38;;;9.35;76.29
41234;BME280;26968;42.686;23.352;2023-05-12T04:14:32;95556.72;;;9.67;76.18
41234;BME280;26968;42.686;23.352;2023-05-12T04:16:57;95554.09;;;9.78;76.14
41234;BME280;26968;42.686;23.352;2023-05-12T04:19:22;95548.78;;;9.73;76.36
41234;BME280;26968;42.686;23.352;2023-05-12T04:21:48;95476.28;;;9.21;74.69
41234;BME280;26968;42.686;23.352;2023-05-12T04:24:13;95545.09;;;9.79;76.12
41234;BME280;26968;42.686;23.352;2023-05-12T04:26:39;95544.53;;;9.66;76.13
41234;BME280;26968;42.686;23.352;2023-05-12T04:29:04;95513.44;;;9.42;75.81
41234;BME280;26968;42.686;23.352;2023-05-12T04:31:30;95527.78;;;9.51;76.15
41234;BME280;26968;42.686;23.352;2023-05-12T04:33:55;95505.00;;;9.50;75.88
41234;BME280;26968;42.686;23.352;2023-05-12T04:36:21;95507.72;;;9.60;76.16
41234;BME280;26968;42.686;23.352;2023-05-12T04:38:47;95530.75;;;9.69;75.79
41234;BME280;26968;42.686;23.352;2023-05-12T04:41:12;95531.31;;;9.77;75.43
41234;BME280;26968;42.686;23.352;2023-05-12T04:43:38;95531.84;;;9.79;75.90
41234;BME280;26968;42.686;23.352;2023-05-12T04:46:03;95481.72;;;9.52;75.65
41234;BME280;26968;42.686;23.352;2023-05-12T04:48:29;95527.13;;;9.86;75.09
41234;BME280;26968;42.686;23.352;2023-05-12T04:50:54;95551.31;;;10.04;75.63
41234;BME280;26968;42.686;23.352;2023-05-12T04:53:20;95535.41;;;10.04;75.38
41234;BME280;26968;42.686;23.352;2023-05-12T04:55:45;95511.22;;;9.76;75.56
41234;BME280;26968;42.686;23.352;2023-05-12T04:58:12;95506.97;;;9.85;75.95
41234;BME280;26968;42.686;23.352;2023-05-12T05:00:40;95523.72;;;9.95;75.75
41234;BME280;26968;42.686;23.352;2023-05-12T05:03:06;95535.91;;;9.96;74.65
41234;BME280;26968;42.686;23.352;2023-05-12T05:05:34;95470.91;;;9.63;74.53
41234;BME280;26968;42.686;23.352;2023-05-12T05:08:01;95511.47;;;9.79;76.13
41234;BME280;26968;42.686;23.352;2023-05-12T05:10:27;95474.88;;;9.61;75.14
41234;BME280;26968;42.686;23.352;2023-05-12T05:12:53;95558.53;;;10.19;76.03
41234;BME280;26968;42.686;23.352;2023-05-12T05:15:18;95553.75;;;10.21;75.23
41234;BME280;26968;42.686;23.352;2023-05-12T05:17:44;95494.53;;;9.85;74.50
41234;BME280;26968;42.686;23.352;2023-05-12T05:20:13;95471.19;;;9.77;74.67
41234;BME280;26968;42.686;23.352;2023-05-12T05:22:38;95410.44;;;9.30;74.66
41234;BME280;26968;42.686;23.352;2023-05-12T05:25:04;95556.69;;;10.30;74.58
41234;BME280;26968;42.686;23.352;2023-05-12T05:27:30;95515.22;;;9.88;75.93
41234;BME280;26968;42.686;23.352;2023-05-12T05:29:55;95545.81;;;10.26;74.55
41234;BME280;26968;42.686;23.352;2023-05-12T05:32:21;95485.03;;;9.94;74.60
41234;BME280;26968;42.686;23.352;2023-05-12T05:34:47;95563.34;;;10.48;74.45
41234;BME280;26968;42.686;23.352;2023-05-12T05:37:12;95566.47;;;10.24;75.57
41234;BME280;26968;42.686;23.352;2023-05-12T05:39:38;95548.41;;;10.06;75.38
41234;BME280;26968;42.686;23.352;2023-05-12T05:42:03;95477.28;;;9.78;74.60
41234;BME280;26968;42.686;23.352;2023-05-12T05:44:28;95500.63;;;9.86;74.86
41234;BME280;26968;42.686;23.352;2023-05-12T05:46:55;95561.97;;;10.30;74.65
41234;BME280;26968;42.686;23.352;2023-05-12T05:49:20;95510.41;;;9.85;74.86
41234;BME280;26968;42.686;23.352;2023-05-12T05:51:45;95537.53;;;10.13;74.55
41234;BME280;26968;42.686;23.352;2023-05-12T05:54:11;95543.09;;;10.11;74.03
41234;BME280;26968;42.686;23.352;2023-05-12T05:56:36;95572.31;;;10.26;74.87
41234;BME280;26968;42.686;23.352;2023-05-12T05:59:02;95549.25;;;10.27;73.90
41234;BME280;26968;42.686;23.352;2023-05-12T06:01:29;95560.41;;;10.29;74.12
41234;BME280;26968;42.686;23.352;2023-05-12T06:03:56;95580.56;;;10.40;74.16
41234;BME280;26968;42.686;23.352;2023-05-12T06:06:22;95547.91;;;10.19;74.56
41234;BME280;26968;42.686;23.352;2023-05-12T06:08:47;95527.44;;;10.04;74.98
41234;BME280;26968;42.686;23.352;2023-05-12T06:11:13;95550.59;;;10.29;75.39
41234;BME280;26968;42.686;23.352;2023-05-12T06:13:38;95523.31;;;10.29;73.69
41234;BME280;26968;42.686;23.352;2023-05-12T06:16:04;95553.56;;;10.58;73.41
41234;BME280;26968;42.686;23.352;2023-05-12T06:18:30;95542.16;;;10.53;73.42
41234;BME280;26968;42.686;23.352;2023-05-12T06:20:58;95517.91;;;9.98;74.65
41234;BME280;26968;42.686;23.352;2023-05-12T06:23:23;95544.78;;;10.37;74.19
41234;BME280;26968;42.686;23.352;2023-05-12T06:25:49;95560.47;;;10.59;73.92
41234;BME280;26968;42.686;23.352;2023-05-12T06:28:14;95584.59;;;10.73;74.01
41234;BME280;26968;42.686;23.352;2023-05-12T06:30:40;95547.47;;;10.58;72.93
41234;BME280;26968;42.686;23.352;2023-05-12T06:33:05;95527.28;;;10.36;73.83
41234;BME280;26968;42.686;23.352;2023-05-12T06:35:31;95592.28;;;10.84;74.13
41234;BME280;26968;42.686;23.352;2023-05-12T06:37:56;95537.63;;;10.48;71.11
41234;BME280;26968;42.686;23.352;2023-05-12T06:40:22;95559.66;;;10.69;71.63
41234;BME280;26968;42.686;23.352;2023-05-12T06:42:47;95590.69;;;10.99;71.84
41234;BME280;26968;42.686;23.352;2023-05-12T06:45:15;95554.09;;;10.70;71.94
41234;BME280;26968;42.686;23.352;2023-05-12T06:47:40;95567.06;;;10.62;71.86
41234;BME280;26968;42.686;23.352;2023-05-12T06:50:07;95599.19;;;11.01;71.53
41234;BME280;26968;42.686;23.352;2023-05-12T06:52:33;95548.25;;;10.78;71.01
41234;BME280;26968;42.686;23.352;2023-05-12T06:54:58;95561.78;;;10.62;70.04
41234;BME280;26968;42.686;23.352;2023-05-12T06:57:23;95539.50;;;10.58;70.61
41234;BME280;26968;42.686;23.352;2023-05-12T06:59:49;95545.59;;;10.68;71.41
41234;BME280;26968;42.686;23.352;2023-05-12T07:02:14;95565.78;;;10.90;70.67
41234;BME280;26968;42.686;23.352;2023-05-12T07:04:41;95561.00;;;10.97;69.92
41234;BME280;26968;42.686;23.352;2023-05-12T07:07:06;95593.34;;;11.24;69.88
41234;BME280;26968;42.686;23.352;2023-05-12T07:09:32;95577.97;;;11.11;71.31
41234;BME280;26968;42.686;23.352;2023-05-12T07:11:57;95553.81;;;11.02;70.74
41234;BME280;26968;42.686;23.352;2023-05-12T07:14:23;95587.25;;;11.23;71.08
41234;BME280;26968;42.686;23.352;2023-05-12T07:16:51;95606.63;;;11.24;70.81
41234;BME280;26968;42.686;23.352;2023-05-12T07:19:16;95600.81;;;11.27;69.18
41234;BME280;26968;42.686;23.352;2023-05-12T07:21:42;95563.91;;;11.05;70.99
41234;BME280;26968;42.686;23.352;2023-05-12T07:24:08;95600.00;;;11.32;69.81
41234;BME280;26968;42.686;23.352;2023-05-12T07:26:34;95575.84;;;11.13;70.91
41234;BME280;26968;42.686;23.352;2023-05-12T07:29:00;95569.75;;;10.92;69.16
41234;BME280;26968;42.686;23.352;2023-05-12T07:31:26;95611.94;;;11.09;70.44
41234;BME280;26968;42.686;23.352;2023-05-12T07:33:52;95583.00;;;11.28;70.17
41234;BME280;26968;42.686;23.352;2023-05-12T07:36:18;95577.44;;;11.19;70.35
41234;BME280;26968;42.686;23.352;2023-05-12T07:38:43;95602.38;;;11.43;68.31
41234;BME280;26968;42.686;23.352;2023-05-12T07:41:08;95525.97;;;11.05;69.86
41234;BME280;26968;42.686;23.352;2023-05-12T07:43:34;95573.69;;;11.30;70.75
41234;BME280;26968;42.686;23.352;2023-05-12T07:45:59;95572.66;;;11.21;70.37
41234;BME280;26968;42.686;23.352;2023-05-12T07:48:25;95607.66;;;11.48;70.84
41234;BME280;26968;42.686;23.352;2023-05-12T07:50:51;95513.50;;;10.95;68.35
41234;BME280;26968;42.686;23.352;2023-05-12T07:53:16;95477.97;;;10.71;69.34
41234;BME280;26968;42.686;23.352;2023-05-12T07:55:41;95569.41;;;11.54;70.89
41234;BME280;26968;42.686;23.352;2023-05-12T07:58:08;95565.69;;;11.55;70.55
41234;BME280;26968;42.686;23.352;2023-05-12T08:00:33;95556.63;;;11.61;68.05
41234;BME280;26968;42.686;23.352;2023-05-12T08:02:59;95575.22;;;11.77;69.50
41234;BME280;26968;42.686;23.352;2023-05-12T08:05:24;95581.78;;;12.05;69.89
41234;BME280;26968;42.686;23.352;2023-05-12T08:07:49;95526.56;;;11.86;68.19
41234;BME280;26968;42.686;23.352;2023-05-12T08:10:15;95591.53;;;12.19;67.79
41234;BME280;26968;42.686;23.352;2023-05-12T08:12:41;95569.97;;;12.21;69.05
41234;BME280;26968;42.686;23.352;2023-05-12T08:15:07;95582.97;;;12.32;68.83
41234;BME280;26968;42.686;23.352;2023-05-12T08:17:34;95598.53;;;12.54;67.71
41234;BME280;26968;42.686;23.352;2023-05-12T08:20:00;95591.59;;;12.58;65.45
41234;BME280;26968;42.686;23.352;2023-05-12T08:22:28;95559.78;;;12.38;64.51
41234;BME280;26968;42.686;23.352;2023-05-12T08:24:54;95591.78;;;12.72;64.18
41234;BME280;26968;42.686;23.352;2023-05-12T08:27:19;95595.72;;;12.80;65.88
41234;BME280;26968;42.686;23.352;2023-05-12T08:29:45;95597.81;;;12.83;64.77
41234;BME280;26968;42.686;23.352;2023-05-12T08:32:10;95579.66;;;12.90;64.27
41234;BME280;26968;42.686;23.352;2023-05-12T08:34:36;95575.59;;;12.97;63.85
41234;BME280;26968;42.686;23.352;2023-05-12T08:37:01;95571.19;;;12.83;63.08
41234;BME280;26968;42.686;23.352;2023-05-12T08:39:27;95576.72;;;12.91;63.42
41234;BME280;26968;42.686;23.352;2023-05-12T08:42:12;95597.34;;;13.09;63.01
41234;BME280;26968;42.686;23.352;2023-05-12T08:44:42;95592.84;;;13.05;62.31
41234;BME280;26968;42.686;23.352;2023-05-12T08:47:10;95587.44;;;13.20;62.79
41234;BME280;26968;42.686;23.352;2023-05-12T08:49:38;95601.78;;;13.24;62.52
41234;BME280;26968;42.686;23.352;2023-05-12T08:52:04;95560.47;;;12.93;61.36
41234;BME280;26968;42.686;23.352;2023-05-12T08:54:31;95549.56;;;12.94;62.40
41234;BME280;26968;42.686;23.352;2023-05-12T08:56:58;95608.59;;;13.40;62.49
41234;BME280;26968;42.686;23.352;2023-05-12T08:59:23;95609.22;;;13.56;63.22
41234;BME280;26968;42.686;23.352;2023-05-12T09:01:49;95541.28;;;13.30;60.08
41234;BME280;26968;42.686;23.352;2023-05-12T09:04:15;95602.28;;;13.84;60.09
41234;BME280;26968;42.686;23.352;2023-05-12T09:06:45;95593.88;;;13.43;59.62
41234;BME280;26968;42.686;23.352;2023-05-12T09:09:15;95566.69;;;13.46;61.66
41234;BME280;26968;42.686;23.352;2023-05-12T09:11:41;95593.47;;;13.83;62.17
41234;BME280;26968;42.686;23.352;2023-05-12T09:14:23;95561.72;;;13.63;58.90
41234;BME280;26968;42.686;23.352;2023-05-12T09:16:54;95562.19;;;13.70;59.00
41234;BME280;26968;42.686;23.352;2023-05-12T09:19:23;95560.50;;;13.50;57.56
41234;BME280;26968;42.686;23.352;2023-05-12T09:21:49;95592.16;;;13.81;59.06
41234;BME280;26968;42.686;23.352;2023-05-12T09:24:14;95579.00;;;13.89;58.88
41234;BME280;26968;42.686;23.352;2023-05-12T09:26:45;95555.19;;;13.74;58.28
41234;BME280;26968;42.686;23.352;2023-05-12T09:29:11;95578.19;;;14.13;58.02
41234;BME280;26968;42.686;23.352;2023-05-12T09:31:36;95553.91;;;13.96;58.13
41234;BME280;26968;42.686;23.352;2023-05-12T09:34:12;95576.22;;;14.23;57.56
41234;BME280;26968;42.686;23.352;2023-05-12T09:36:37;95458.97;;;13.52;58.07
41234;BME280;26968;42.686;23.352;2023-05-12T09:39:07;95482.78;;;13.67;57.62
41234;BME280;26968;42.686;23.352;2023-05-12T09:41:41;95503.19;;;13.77;57.86
41234;BME280;26968;42.686;23.352;2023-05-12T09:44:08;95530.94;;;14.18;57.34
41234;BME280;26968;42.686;23.352;2023-05-12T09:46:35;95520.97;;;14.05;57.29
41234;BME280;26968;42.686;23.352;2023-05-12T09:49:00;95558.69;;;14.41;57.10
41234;BME280;26968;42.686;23.352;2023-05-12T09:51:29;95526.81;;;14.07;56.56
41234;BME280;26968;42.686;23.352;2023-05-12T09:53:56;95563.38;;;14.25;57.31
41234;BME280;26968;42.686;23.352;2023-05-12T09:56:21;95540.19;;;14.26;56.87
41234;BME280;26968;42.686;23.352;2023-05-12T09:58:49;95571.16;;;14.46;54.99
41234;BME280;26968;42.686;23.352;2023-05-12T10:01:17;95530.72;;;14.15;56.52
41234;BME280;26968;42.686;23.352;2023-05-12T10:03:51;95551.66;;;14.45;55.84
41234;BME280;26968;42.686;23.352;2023-05-12T10:06:32;95542.41;;;14.38;56.25
41234;BME280;26968;42.686;23.352;2023-05-12T10:09:17;95566.94;;;14.58;54.35
41234;BME280;26968;42.686;23.352;2023-05-12T10:11:45;95543.03;;;14.53;54.96
41234;BME280;26968;42.686;23.352;2023-05-12T10:14:12;95506.13;;;14.37;55.18
41234;BME280;26968;42.686;23.352;2023-05-12T10:16:39;95556.19;;;14.82;54.20
41234;BME280;26968;42.686;23.352;2023-05-12T10:19:05;95539.38;;;14.82;54.45
41234;BME280;26968;42.686;23.352;2023-05-12T10:21:31;95544.28;;;14.93;54.30
41234;BME280;26968;42.686;23.352;2023-05-12T10:23:57;95539.78;;;15.07;53.57
41234;BME280;26968;42.686;23.352;2023-05-12T10:26:23;95507.09;;;14.97;54.52
41234;BME280;26968;42.686;23.352;2023-05-12T10:28:50;95515.50;;;15.04;53.55
41234;BME280;26968;42.686;23.352;2023-05-12T10:31:18;95539.94;;;15.30;54.46
41234;BME280;26968;42.686;23.352;2023-05-12T10:33:55;95544.59;;;15.52;51.65
41234;BME280;26968;42.686;23.352;2023-05-12T10:36:21;95526.56;;;15.30;50.48
41234;BME280;26968;42.686;23.352;2023-05-12T10:38:47;95537.13;;;15.54;51.69
41234;BME280;26968;42.686;23.352;2023-05-12T10:41:16;95513.28;;;15.71;52.62
41234;BME280;26968;42.686;23.352;2023-05-12T10:43:43;95519.03;;;15.78;51.99
41234;BME280;26968;42.686;23.352;2023-05-12T10:51:22;95510.25;;;16.13;51.59
41234;BME280;26968;42.686;23.352;2023-05-12T10:53:55;95519.88;;;16.14;51.48
41234;BME280;26968;42.686;23.352;2023-05-12T10:56:26;95529.31;;;16.62;50.61
41234;BME280;26968;42.686;23.352;2023-05-12T10:59:30;95522.53;;;16.78;50.36
41234;BME280;26968;42.686;23.352;2023-05-12T11:04:55;95531.28;;;16.92;48.64
41234;BME280;26968;42.686;23.352;2023-05-12T11:07:23;95518.34;;;16.94;48.29
41234;BME280;26968;42.686;23.352;2023-05-12T11:09:52;95526.44;;;17.25;48.59
41234;BME280;26968;42.686;23.352;2023-05-12T11:12:18;95499.53;;;17.30;45.93
41234;BME280;26968;42.686;23.352;2023-05-12T11:14:45;95467.91;;;17.18;45.50
41234;BME280;26968;42.686;23.352;2023-05-12T11:17:11;95550.53;;;17.78;46.87
41234;BME280;26968;42.686;23.352;2023-05-12T11:19:38;95521.22;;;17.82;46.20
41234;BME280;26968;42.686;23.352;2023-05-12T11:22:08;95545.88;;;17.92;45.78
41234;BME280;26968;42.686;23.352;2023-05-12T11:24:36;95512.69;;;17.49;45.16
41234;BME280;26968;42.686;23.352;2023-05-12T11:27:06;95547.13;;;17.95;44.82
41234;BME280;26968;42.686;23.352;2023-05-12T11:29:32;95531.75;;;17.69;45.67
41234;BME280;26968;42.686;23.352;2023-05-12T11:31:58;95536.94;;;17.66;46.14
41234;BME280;26968;42.686;23.352;2023-05-12T11:34:25;95544.19;;;17.65;45.92
41234;BME280;26968;42.686;23.352;2023-05-12T11:36:53;95524.94;;;17.63;44.44
41234;BME280;26968;42.686;23.352;2023-05-12T11:39:21;95550.88;;;17.77;43.42
41234;BME280;26968;42.686;23.352;2023-05-12T11:41:48;95553.66;;;17.41;44.70
41234;BME280;26968;42.686;23.352;2023-05-12T11:44:22;95515.06;;;17.19;44.15
41234;BME280;26968;42.686;23.352;2023-05-12T11:47:01;95550.09;;;17.23;44.54
41234;BME280;26968;42.686;23.352;2023-05-12T11:49:27;95537.22;;;17.11;45.07
41234;BME280;26968;42.686;23.352;2023-05-12T11:51:55;95500.09;;;16.96;45.05
41234;BME280;26968;42.686;23.352;2023-05-12T11:54:22;95529.47;;;17.01;45.15
41234;BME280;26968;42.686;23.352;2023-05-12T11:56:52;95537.91;;;16.94;46.20
41234;BME280;26968;42.686;23.352;2023-05-12T11:59:34;95540.19;;;17.01;46.17
41234;BME280;26968;42.686;23.352;2023-05-12T12:02:00;95545.50;;;16.79;45.78
41234;BME280;26968;42.686;23.352;2023-05-12T12:04:33;95488.41;;;16.34;46.46
41234;BME280;26968;42.686;23.352;2023-05-12T12:06:58;95495.47;;;16.30;46.47
41234;BME280;26968;42.686;23.352;2023-05-12T12:09:35;95515.06;;;16.39;47.10
41234;BME280;26968;42.686;23.352;2023-05-12T12:12:02;95537.25;;;16.53;47.47
41234;BME280;26968;42.686;23.352;2023-05-12T12:14:29;95542.22;;;16.46;46.71
41234;BME280;26968;42.686;23.352;2023-05-12T12:16:56;95509.56;;;16.21;45.63
41234;BME280;26968;42.686;23.352;2023-05-12T12:19:21;95543.81;;;16.47;46.60
41234;BME280;26968;42.686;23.352;2023-05-12T12:21:47;95544.41;;;16.44;46.12
41234;BME280;26968;42.686;23.352;2023-05-12T12:24:12;95547.28;;;16.34;46.24
41234;BME280;26968;42.686;23.352;2023-05-12T12:26:37;95546.94;;;16.49;47.45
41234;BME280;26968;42.686;23.352;2023-05-12T12:29:03;95527.38;;;16.26;47.30
41234;BME280;26968;42.686;23.352;2023-05-12T12:31:29;95516.00;;;16.20;46.45
41234;BME280;26968;42.686;23.352;2023-05-12T12:33:54;95530.38;;;15.97;47.68
41234;BME280;26968;42.686;23.352;2023-05-12T12:36:20;95500.59;;;15.90;47.55
41234;BME280;26968;42.686;23.352;2023-05-12T12:38:47;95519.09;;;16.00;47.38
41234;BME280;26968;42.686;23.352;2023-05-12T12:41:12;95542.31;;;16.41;47.09
41234;BME280;26968;42.686;23.352;2023-05-12T12:43:38;95517.56;;;16.35;46.91
41234;BME280;26968;42.686;23.352;2023-05-12T12:46:03;95502.13;;;16.18;46.84
41234;BME280;26968;42.686;23.352;2023-05-12T12:48:29;95522.72;;;16.32;48.69
41234;BME280;26968;42.686;23.352;2023-05-12T12:50:56;95530.50;;;16.42;47.79
41234;BME280;26968;42.686;23.352;2023-05-12T12:53:23;95512.41;;;16.39;46.84
41234;BME280;26968;42.686;23.352;2023-05-12T12:55:48;95529.00;;;16.49;47.66
41234;BME280;26968;42.686;23.352;2023-05-12T12:58:14;95501.41;;;16.27;47.68